createdAt,value
2016-05-05T00:00:58.104Z,6.6
2016-05-05T00:04:10.722Z,6.6
2016-05-05T00:07:23.183Z,6.6
2016-05-05T00:10:35.738Z,6.6
2016-05-05T00:13:53.355Z,6.6
2016-05-05T00:17:01.084Z,6.6
2016-05-05T00:20:03.843Z,6.6
2016-05-05T00:23:16.398Z,6.6
2016-05-05T00:26:29.109Z,6.6
2016-05-05T00:29:41.773Z,6.6
2016-05-05T00:32:59.330Z,6.6
2016-05-05T00:36:02.042Z,6.6
2016-05-05T00:39:14.800Z,6.7
2016-05-05T00:42:26.667Z,6.7
2016-05-05T00:45:43.332Z,6.7
2016-05-05T00:48:56.543Z,6.7
2016-05-05T00:51:59.304Z,6.8
2016-05-05T00:55:11.921Z,6.8
2016-05-05T00:58:24.524Z,6.8
2016-05-05T01:01:37.359Z,6.8
2016-05-05T01:04:55.055Z,6.8
2016-05-05T01:08:02.847Z,6.9
2016-05-05T01:11:05.511Z,6.9
2016-05-05T01:14:17.941Z,6.9
2016-05-05T01:17:30.465Z,6.9
2016-05-05T01:20:43.269Z,6.9
2016-05-05T01:24:00.921Z,6.9
2016-05-05T01:27:01.882Z,7
2016-05-05T01:30:16.437Z,6.9
2016-05-05T01:33:29.258Z,7
2016-05-05T01:36:39.345Z,6.9
2016-05-05T01:39:56.805Z,7
2016-05-05T01:42:59.783Z,6.9
2016-05-05T01:46:12.386Z,6.9
2016-05-05T01:49:23.269Z,6.9
2016-05-05T01:52:36.095Z,6.9
2016-05-05T01:55:53.887Z,6.9
2016-05-05T01:59:01.860Z,7
2016-05-05T02:02:04.550Z,7
2016-05-05T02:05:17.139Z,6.9
2016-05-05T02:08:29.783Z,6.9
2016-05-05T02:11:42.640Z,6.9
2016-05-05T02:14:57.823Z,6.9
2016-05-05T02:18:00.630Z,6.9
2016-05-05T02:21:13.096Z,6.9
2016-05-05T02:24:25.715Z,6.9
2016-05-05T02:27:38.114Z,6.9
2016-05-05T02:30:55.982Z,6.9
2016-05-05T02:33:58.880Z,6.9
2016-05-05T02:37:11.750Z,6.9
2016-05-05T02:40:24.415Z,6.9
2016-05-05T02:43:37.219Z,7
2016-05-05T02:46:54.915Z,7
2016-05-05T02:50:02.938Z,7
2016-05-05T02:53:05.965Z,7
2016-05-05T02:56:16.005Z,7.1
2016-05-05T02:59:26.872Z,7.1
2016-05-05T03:02:41.599Z,7.1
2016-05-05T03:05:59.170Z,7.1
2016-05-05T03:09:02.318Z,7.1
2016-05-05T03:12:14.922Z,7.1
2016-05-05T03:15:27.539Z,7.1
2016-05-05T03:18:40.252Z,7.1
2016-05-05T03:21:58.024Z,7.1
2016-05-05T03:25:01.268Z,7.1
2016-05-05T03:28:11.340Z,7.1
2016-05-05T03:31:24.223Z,7.1
2016-05-05T03:34:36.935Z,7.1
2016-05-05T03:37:53.724Z,7.1
2016-05-05T03:41:02.482Z,7.1
2016-05-05T03:44:05.397Z,7.1
2016-05-05T03:47:18.205Z,7.1
2016-05-05T03:50:30.946Z,7
2016-05-05T03:53:43.251Z,7.1
2016-05-05T03:57:00.760Z,7.1
2016-05-05T04:00:03.768Z,7
2016-05-05T04:03:16.434Z,7
2016-05-05T04:06:28.881Z,7
2016-05-05T04:09:41.576Z,7
2016-05-05T04:12:59.381Z,7
2016-05-05T04:16:02.436Z,7
2016-05-05T04:19:13.587Z,7
2016-05-05T04:22:26.283Z,6.9
2016-05-05T04:25:38.666Z,6.9
2016-05-05T04:28:56.236Z,6.9
2016-05-05T04:31:56.885Z,6.9
2016-05-05T04:35:11.879Z,6.9
2016-05-05T04:38:22.107Z,6.9
2016-05-05T04:41:34.975Z,6.9
2016-05-05T04:44:46.717Z,6.9
2016-05-05T04:48:00.819Z,6.9
2016-05-05T04:51:11.533Z,6.9
2016-05-05T04:54:24.369Z,7
2016-05-05T04:57:37.080Z,7
2016-05-05T05:00:54.791Z,7.1
2016-05-05T05:04:02.752Z,7.1
2016-05-05T05:07:05.652Z,7.2
2016-05-05T05:10:18.334Z,7.2
2016-05-05T05:13:31.092Z,7.3
2016-05-05T05:16:43.709Z,7.4
2016-05-05T05:20:01.530Z,7.6
2016-05-05T05:23:04.835Z,7.9
2016-05-05T05:26:16.361Z,8.6
2016-05-05T05:29:30.088Z,9.4
2016-05-05T05:32:43.815Z,10.2
2016-05-05T05:36:02.338Z,11
2016-05-05T05:39:06.034Z,11.6
2016-05-05T05:42:19.810Z,12.3
2016-05-05T05:45:30.897Z,12.9
2016-05-05T05:48:44.655Z,13.6
2016-05-05T05:52:03.147Z,14.2
2016-05-05T05:55:07.233Z,14.7
2016-05-05T05:58:21.291Z,15.3
2016-05-05T06:01:35.080Z,15.7
2016-05-05T06:04:48.948Z,16.3
2016-05-05T06:08:02.987Z,16.9
2016-05-05T06:11:17.107Z,17.4
2016-05-05T06:14:30.756Z,17.9
2016-05-05T06:17:45.061Z,18.5
2016-05-05T06:20:59.162Z,19
2016-05-05T06:24:13.777Z,19.5
2016-05-05T06:27:27.847Z,20
2016-05-05T06:30:42.199Z,20.6
2016-05-05T06:34:01.535Z,21.1
2016-05-05T06:37:06.309Z,21.7
2016-05-05T06:40:21.039Z,22.4
2016-05-05T06:43:35.953Z,23
2016-05-05T06:46:55.945Z,23.7
2016-05-05T06:50:01.485Z,24
2016-05-05T06:53:16.386Z,24.4
2016-05-05T06:56:31.238Z,24.9
2016-05-05T06:59:46.152Z,25.5
2016-05-05T07:03:01.285Z,26.1
2016-05-05T07:06:16.468Z,26.7
2016-05-05T07:09:31.226Z,27.2
2016-05-05T07:12:46.453Z,27.6
2016-05-05T07:16:01.586Z,28
2016-05-05T07:19:16.675Z,28.4
2016-05-05T07:22:31.542Z,28.7
2016-05-05T07:25:46.316Z,29.2
2016-05-05T07:29:01.449Z,29.7
2016-05-05T07:32:16.569Z,30.2
2016-05-05T07:35:31.905Z,30.7
2016-05-05T07:38:47.070Z,31.2
2016-05-05T07:42:01.812Z,31.7
2016-05-05T07:45:17.042Z,32
2016-05-05T07:48:32.190Z,32
2016-05-05T07:51:47.339Z,32.4
2016-05-05T07:55:02.285Z,33
2016-05-05T07:58:17.671Z,33.9
2016-05-05T08:01:30.835Z,34.1
2016-05-05T08:04:48.015Z,34.5
2016-05-05T08:08:03.351Z,34.9
2016-05-05T08:11:18.690Z,35.8
2016-05-05T08:14:34.323Z,36.2
2016-05-05T08:17:54.799Z,36.1
2016-05-05T08:21:00.511Z,36.6
2016-05-05T08:24:16.066Z,37.8
2016-05-05T08:27:31.545Z,38.4
2016-05-05T08:30:47.225Z,39.2
2016-05-05T08:34:02.827Z,39.9
2016-05-05T08:37:18.354Z,40.8
2016-05-05T08:40:33.845Z,41.6
2016-05-05T08:43:54.526Z,41.4
2016-05-05T08:47:00.596Z,41.8
2016-05-05T08:50:14.198Z,42.1
2016-05-05T08:53:29.850Z,42.6
2016-05-05T08:56:45.795Z,43.2
2016-05-05T09:00:01.490Z,43.6
2016-05-05T09:03:15.435Z,43.5
2016-05-05T09:06:32.993Z,43
2016-05-05T09:09:48.424Z,43
2016-05-05T09:13:03.729Z,43.2
2016-05-05T09:16:19.521Z,43.6
2016-05-05T09:19:35.123Z,44.2
2016-05-05T09:22:55.803Z,44
2016-05-05T09:26:01.747Z,43.4
2016-05-05T09:29:16.944Z,42.6
2016-05-05T09:32:32.073Z,42.2
2016-05-05T09:35:47.002Z,42
2016-05-05T09:39:01.743Z,41.5
2016-05-05T09:42:16.913Z,41.3
2016-05-05T09:45:31.897Z,40.8
2016-05-05T09:48:46.437Z,39.7
2016-05-05T09:52:00.758Z,37.4
2016-05-05T09:55:14.844Z,34
2016-05-05T09:58:28.699Z,31.2
2016-05-05T10:01:43.285Z,29
2016-05-05T10:05:03.135Z,27.5
2016-05-05T10:08:08.457Z,26.4
2016-05-05T10:11:23.389Z,25.1
2016-05-05T10:14:38.194Z,24.1
2016-05-05T10:17:57.842Z,23.6
2016-05-05T10:21:03.132Z,23
2016-05-05T10:24:18.156Z,22.5
2016-05-05T10:27:32.152Z,22
2016-05-05T10:30:46.721Z,21.6
2016-05-05T10:34:01.058Z,20.9
2016-05-05T10:37:15.488Z,20.3
2016-05-05T10:40:30.076Z,20
2016-05-05T10:43:44.773Z,19.8
2016-05-05T10:47:04.499Z,19.5
2016-05-05T10:50:07.648Z,19.3
2016-05-05T10:53:24.017Z,19.2
2016-05-05T10:56:38.870Z,19
2016-05-05T10:59:58.328Z,18.8
2016-05-05T11:03:03.514Z,18.6
2016-05-05T11:06:18.265Z,18.5
2016-05-05T11:09:33.056Z,18.5
2016-05-05T11:12:47.564Z,18.4
2016-05-05T11:16:02.344Z,18.4
2016-05-05T11:19:16.967Z,18.2
2016-05-05T11:22:31.793Z,17.9
2016-05-05T11:25:46.408Z,17.7
2016-05-05T11:29:01.183Z,17.6
2016-05-05T11:32:14.848Z,17.5
2016-05-05T11:35:29.499Z,17.5
2016-05-05T11:38:43.897Z,17.6
2016-05-05T11:42:03.594Z,17.4
2016-05-05T11:45:06.523Z,17.3
2016-05-05T11:48:23.297Z,17.1
2016-05-05T11:51:37.886Z,17
2016-05-05T11:54:57.113Z,16.9
2016-05-05T11:58:01.996Z,16.9
2016-05-05T12:01:16.488Z,17
2016-05-05T12:04:31.109Z,17
2016-05-05T12:07:45.694Z,16.9
2016-05-05T12:11:00.234Z,16.9
2016-05-05T12:14:14.585Z,16.8
2016-05-05T12:17:28.816Z,16.8
2016-05-05T12:20:42.995Z,16.7
2016-05-05T12:24:01.690Z,16.6
2016-05-05T12:27:06.152Z,16.7
2016-05-05T12:30:20.019Z,16.7
2016-05-05T12:33:34.249Z,16.7
2016-05-05T12:36:48.303Z,16.7
2016-05-05T12:40:02.233Z,16.7
2016-05-05T12:43:16.413Z,16.7
2016-05-05T12:46:30.440Z,16.8
2016-05-05T12:49:44.510Z,16.8
2016-05-05T12:53:03.565Z,16.8
2016-05-05T12:56:07.793Z,16.8
2016-05-05T12:59:21.784Z,16.9
2016-05-05T13:02:35.577Z,16.8
2016-05-05T13:05:49.381Z,16.8
2016-05-05T13:09:03.094Z,16.7
2016-05-05T13:12:16.820Z,16.6
2016-05-05T13:15:30.268Z,16.6
2016-05-05T13:18:43.932Z,16.6
2016-05-05T13:22:02.582Z,16.6
2016-05-05T13:25:06.558Z,16.7
2016-05-05T13:28:20.020Z,16.7
2016-05-05T13:31:33.498Z,16.8
2016-05-05T13:34:47.054Z,16.9
2016-05-05T13:38:07.390Z,16.9
2016-05-05T13:41:14.117Z,16.9
2016-05-05T13:44:27.266Z,16.9
2016-05-05T13:47:40.136Z,16.9
2016-05-05T13:50:58.035Z,16.9
2016-05-05T13:54:01.808Z,16.9
2016-05-05T13:57:15.269Z,17
2016-05-05T14:00:28.449Z,17
2016-05-05T14:03:41.537Z,17.1
2016-05-05T14:06:58.795Z,17
2016-05-05T14:10:02.133Z,16.9
2016-05-05T14:13:15.281Z,16.9
2016-05-05T14:16:28.508Z,16.9
2016-05-05T14:19:41.346Z,16.9
2016-05-05T14:22:59.401Z,16.8
2016-05-05T14:26:02.894Z,16.8
2016-05-05T14:29:16.137Z,16.8
2016-05-05T14:32:29.348Z,16.8
2016-05-05T14:35:42.702Z,16.9
2016-05-05T14:39:00.664Z,17
2016-05-05T14:42:04.094Z,17
2016-05-05T14:45:17.461Z,17.1
2016-05-05T14:48:30.968Z,17.1
2016-05-05T14:51:44.635Z,17.2
2016-05-05T14:55:03.379Z,17.2
2016-05-05T14:58:07.229Z,17.2
2016-05-05T15:01:20.847Z,17.2
2016-05-05T15:04:34.481Z,17.2
2016-05-05T15:07:48.256Z,17.3
2016-05-05T15:11:01.781Z,17.2
2016-05-05T15:14:15.273Z,17.2
2016-05-05T15:17:28.687Z,17.2
2016-05-05T15:20:42.089Z,17.2
2016-05-05T15:24:00.738Z,17.2
2016-05-05T15:27:04.605Z,17.1
2016-05-05T15:30:18.098Z,17.1
2016-05-05T15:33:31.792Z,17.2
2016-05-05T15:36:45.476Z,17.3
2016-05-05T15:40:04.406Z,17.2
2016-05-05T15:43:06.054Z,17.3
2016-05-05T15:46:21.531Z,17.3
2016-05-05T15:49:35.024Z,17.3
2016-05-05T15:52:48.456Z,17.3
2016-05-05T15:56:06.182Z,17.3
2016-05-05T15:59:15.206Z,17.3
2016-05-05T16:02:28.715Z,17.2
2016-05-05T16:05:42.335Z,17.1
2016-05-05T16:09:00.843Z,16.9
2016-05-05T16:12:04.726Z,16.9
2016-05-05T16:15:16.062Z,16.9
2016-05-05T16:18:31.477Z,16.9
2016-05-05T16:21:44.753Z,16.8
2016-05-05T16:25:03.308Z,16.8
2016-05-05T16:28:07.174Z,16.7
2016-05-05T16:31:20.590Z,16.7
2016-05-05T16:34:34.363Z,16.7
2016-05-05T16:37:48.015Z,16.7
2016-05-05T16:41:00.867Z,16.7
2016-05-05T16:44:14.359Z,16.6
2016-05-05T16:47:27.164Z,16.6
2016-05-05T16:50:40.908Z,16.6
2016-05-05T16:53:59.652Z,16.6
2016-05-05T16:57:03.627Z,16.6
2016-05-05T17:00:14.746Z,16.6
2016-05-05T17:03:28.534Z,16.6
2016-05-05T17:06:42.140Z,16.6
2016-05-05T17:10:00.570Z,16.5
2016-05-05T17:13:04.406Z,16.5
2016-05-05T17:16:17.820Z,16.5
2016-05-05T17:19:31.437Z,16.4
2016-05-05T17:22:45.073Z,16.4
2016-05-05T17:26:03.738Z,16.4
2016-05-05T17:29:07.543Z,16.3
2016-05-05T17:32:21.035Z,16.3
2016-05-05T17:35:34.668Z,16.3
2016-05-05T17:38:48.538Z,16.2
2016-05-05T17:42:03.531Z,16.2
2016-05-05T17:45:07.429Z,16.1
2016-05-05T17:48:21.172Z,16.1
2016-05-05T17:51:34.398Z,16
2016-05-05T17:54:46.066Z,15.9
2016-05-05T17:58:01.527Z,15.8
2016-05-05T18:01:15.207Z,15.8
2016-05-05T18:04:28.730Z,15.7
2016-05-05T18:07:41.976Z,15.6
2016-05-05T18:11:00.451Z,15.5
2016-05-05T18:14:04.194Z,15.4
2016-05-05T18:17:17.609Z,15.3
2016-05-05T18:20:31.258Z,15.2
2016-05-05T18:23:44.847Z,15
2016-05-05T18:27:03.480Z,14.9
2016-05-05T18:30:07.253Z,14.8
2016-05-05T18:33:20.730Z,14.7
2016-05-05T18:36:34.349Z,14.6
2016-05-05T18:39:48.124Z,14.5
2016-05-05T18:42:59.445Z,14.3
2016-05-05T18:46:15.406Z,14.2
2016-05-05T18:49:28.289Z,14.1
2016-05-05T18:52:41.750Z,14
2016-05-05T18:56:00.307Z,13.9
2016-05-05T18:59:04.003Z,13.8
2016-05-05T19:02:16.871Z,13.7
2016-05-05T19:05:30.269Z,13.5
2016-05-05T19:08:43.810Z,13.5
2016-05-05T19:12:02.304Z,13.4
2016-05-05T19:15:06.093Z,13.3
2016-05-05T19:18:19.711Z,13.2
2016-05-05T19:21:33.360Z,13.1
2016-05-05T19:24:46.727Z,12.9
2016-05-05T19:28:05.269Z,12.9
2016-05-05T19:31:09.089Z,12.8
2016-05-05T19:34:22.410Z,12.7
2016-05-05T19:37:36.122Z,12.6
2016-05-05T19:40:49.785Z,12.6
2016-05-05T19:44:02.999Z,12.5
2016-05-05T19:47:16.414Z,12.5
2016-05-05T19:50:29.906Z,12.4
2016-05-05T19:53:43.539Z,12.3
2016-05-05T19:57:01.878Z,12.2
2016-05-05T20:00:05.777Z,12.1
2016-05-05T20:03:19.114Z,12
2016-05-05T20:06:32.535Z,12
2016-05-05T20:09:46.446Z,11.9
2016-05-05T20:13:05.080Z,11.8
2016-05-05T20:16:08.972Z,11.8
2016-05-05T20:19:22.638Z,11.8
2016-05-05T20:22:35.463Z,11.7
2016-05-05T20:25:48.851Z,11.7
2016-05-05T20:29:02.115Z,11.6
2016-05-05T20:32:15.483Z,11.6
2016-05-05T20:35:28.850Z,11.6
2016-05-05T20:38:42.358Z,11.5
2016-05-05T20:42:00.494Z,11.4
2016-05-05T20:45:04.111Z,11.4
2016-05-05T20:48:17.463Z,11.3
2016-05-05T20:51:30.596Z,11.2
2016-05-05T20:54:42.307Z,11.2
2016-05-05T20:58:00.396Z,11.1
2016-05-05T21:01:03.904Z,11
2016-05-05T21:04:17.100Z,11
2016-05-05T21:07:30.498Z,10.9
2016-05-05T21:10:44.116Z,10.8
2016-05-05T21:14:02.283Z,10.8
2016-05-05T21:17:05.822Z,10.7
2016-05-05T21:20:19.127Z,10.7
2016-05-05T21:23:32.245Z,10.6
2016-05-05T21:26:44.018Z,10.6
2016-05-05T21:30:02.248Z,10.5
2016-05-05T21:33:05.693Z,10.5
2016-05-05T21:36:18.920Z,10.4
2016-05-05T21:39:32.350Z,10.4
2016-05-05T21:42:43.859Z,10.4
2016-05-05T21:46:02.088Z,10.4
2016-05-05T21:49:05.768Z,10.3
2016-05-05T21:52:19.073Z,10.3
2016-05-05T21:55:32.471Z,10.3
2016-05-05T21:58:45.605Z,10.2
2016-05-05T22:02:03.879Z,10.2
2016-05-05T22:05:07.358Z,10.1
2016-05-05T22:08:20.585Z,10
2016-05-05T22:11:37.671Z,10
2016-05-05T22:14:46.428Z,9.9
2016-05-05T22:18:04.686Z,9.9
2016-05-05T22:21:08.229Z,9.8
2016-05-05T22:24:21.469Z,9.7
2016-05-05T22:27:34.368Z,9.7
2016-05-05T22:30:47.627Z,9.6
2016-05-05T22:34:05.853Z,9.6
2016-05-05T22:37:09.192Z,9.6
2016-05-05T22:40:22.606Z,9.5
2016-05-05T22:43:35.661Z,9.5
2016-05-05T22:46:48.778Z,9.4
2016-05-05T22:50:02.131Z,9.4
2016-05-05T22:53:14.845Z,9.3
2016-05-05T22:56:27.994Z,9.3
2016-05-05T22:59:41.048Z,9.3
2016-05-05T23:02:59.010Z,9.2
2016-05-05T23:06:02.392Z,9.2
2016-05-05T23:09:15.560Z,9.2
2016-05-05T23:12:26.849Z,9.1
2016-05-05T23:15:39.982Z,9.1
2016-05-05T23:18:58.193Z,9.1
2016-05-05T23:22:01.529Z,9
2016-05-05T23:25:14.618Z,9
2016-05-05T23:28:27.486Z,9
2016-05-05T23:31:40.306Z,9
2016-05-05T23:34:58.549Z,8.9
2016-05-05T23:38:01.947Z,8.9
2016-05-05T23:41:15.002Z,8.8
2016-05-05T23:44:28.374Z,8.8
2016-05-05T23:47:39.224Z,8.7
2016-05-05T23:50:58.968Z,8.7
2016-05-05T23:54:02.412Z,8.6
2016-05-05T23:57:15.467Z,8.6
